createdAt,value
2019-03-27T00:00:33.577Z,7.23
2019-03-27T00:01:38.619Z,6.60
2019-03-27T00:02:43.580Z,7.50
2019-03-27T00:03:48.618Z,7.57
2019-03-27T00:04:53.776Z,7.63
2019-03-27T00:05:58.867Z,8.87
2019-03-27T00:07:03.821Z,8.00
2019-03-27T00:08:08.936Z,8.20
2019-03-27T00:09:14.229Z,7.77
2019-03-27T00:10:19.222Z,8.50
2019-03-27T00:11:24.265Z,7.53
2019-03-27T00:12:29.591Z,7.43
2019-03-27T00:13:34.557Z,7.97
2019-03-27T00:14:39.658Z,8.07
2019-03-27T00:15:45.036Z,8.37
2019-03-27T00:16:50.192Z,7.67
2019-03-27T00:17:55.256Z,8.50
2019-03-27T00:19:00.225Z,7.77
2019-03-27T00:20:05.587Z,8.37
2019-03-27T00:21:10.753Z,8.87
2019-03-27T00:22:15.764Z,8.40
2019-03-27T00:23:21.003Z,7.40
2019-03-27T00:24:26.020Z,9.50
2019-03-27T00:25:31.245Z,8.33
2019-03-27T00:26:36.283Z,7.83
2019-03-27T00:27:41.223Z,8.70
2019-03-27T00:28:47.556Z,8.30
2019-03-27T00:29:52.503Z,8.20
2019-03-27T00:30:57.652Z,8.73
2019-03-27T00:32:02.693Z,8.33
2019-03-27T00:33:07.801Z,9.13
2019-03-27T00:34:13.232Z,7.87
2019-03-27T00:35:18.247Z,8.50
2019-03-27T00:36:23.306Z,8.43
2019-03-27T00:37:28.265Z,8.67
2019-03-27T00:38:33.258Z,8.30
2019-03-27T00:39:38.305Z,7.67
2019-03-27T00:40:46.661Z,8.87
2019-03-27T00:41:51.963Z,7.80
2019-03-27T00:44:00.108Z,9.17
2019-03-27T00:45:05.734Z,8.40
2019-03-27T00:46:11.011Z,8.47
2019-03-27T00:47:16.277Z,8.57
2019-03-27T00:48:21.558Z,8.77
2019-03-27T00:49:26.808Z,8.27
2019-03-27T00:50:32.259Z,8.97
2019-03-27T00:51:37.535Z,8.87
2019-03-27T00:52:42.772Z,9.17
2019-03-27T00:53:48.196Z,9.23
2019-03-27T00:54:53.383Z,9.93
2019-03-27T00:55:58.735Z,9.53
2019-03-27T00:57:03.993Z,9.63
2019-03-27T00:58:09.218Z,9.60
2019-03-27T00:59:14.610Z,9.10
2019-03-27T01:00:29.732Z,9.50
2019-03-27T01:01:35.024Z,10.43
2019-03-27T01:02:40.293Z,10.20
2019-03-27T01:03:45.980Z,10.23
2019-03-27T01:04:51.461Z,10.63
2019-03-27T01:05:56.703Z,9.53
2019-03-27T01:07:02.037Z,10.80
2019-03-27T01:08:07.330Z,10.67
2019-03-27T01:09:12.698Z,11.60
2019-03-27T01:10:18.171Z,10.60
2019-03-27T01:11:23.508Z,11.73
2019-03-27T01:12:28.780Z,11.00
2019-03-27T01:13:34.385Z,11.57
2019-03-27T01:14:39.782Z,10.77
2019-03-27T01:15:46.337Z,11.17
2019-03-27T01:16:51.830Z,10.57
2019-03-27T01:17:57.125Z,11.20
2019-03-27T01:19:05.627Z,10.53
2019-03-27T01:20:11.048Z,10.23
2019-03-27T01:21:16.343Z,10.60
2019-03-27T01:22:21.692Z,11.67
2019-03-27T01:23:26.926Z,10.93
2019-03-27T01:24:32.143Z,11.47
2019-03-27T01:25:37.513Z,12.33
2019-03-27T01:26:42.824Z,10.57
2019-03-27T01:27:48.317Z,11.67
2019-03-27T01:28:53.651Z,11.93
2019-03-27T01:29:59.066Z,11.73
2019-03-27T01:31:04.349Z,12.90
2019-03-27T01:32:09.953Z,13.40
2019-03-27T01:33:15.193Z,12.00
2019-03-27T01:34:20.384Z,12.60
2019-03-27T01:35:25.642Z,11.77
2019-03-27T01:36:30.881Z,12.87
2019-03-27T01:37:36.258Z,12.60
2019-03-27T01:38:41.508Z,12.67
2019-03-27T01:39:46.714Z,13.27
2019-03-27T01:40:52.255Z,13.80
2019-03-27T01:41:57.733Z,12.83
2019-03-27T01:43:03.012Z,12.70
2019-03-27T01:44:08.285Z,13.87
2019-03-27T01:45:13.560Z,12.37
2019-03-27T01:46:18.992Z,13.03
2019-03-27T01:47:24.240Z,13.47
2019-03-27T01:48:29.441Z,12.97
2019-03-27T01:49:34.599Z,13.43
2019-03-27T01:50:39.865Z,13.50
2019-03-27T01:51:45.041Z,12.40
2019-03-27T01:52:50.360Z,13.23
2019-03-27T01:53:55.626Z,12.20
2019-03-27T01:55:01.151Z,12.37
2019-03-27T01:56:06.625Z,12.73
2019-03-27T01:57:12.107Z,11.57
2019-03-27T01:58:17.413Z,11.83
2019-03-27T01:59:22.666Z,12.87
2019-03-27T02:00:28.110Z,13.53
2019-03-27T02:01:33.538Z,13.03
2019-03-27T02:02:38.889Z,12.63
2019-03-27T02:03:44.087Z,12.03
2019-03-27T02:04:49.291Z,12.33
2019-03-27T02:05:54.609Z,12.93
2019-03-27T02:06:59.796Z,12.40
2019-03-27T02:08:05.198Z,12.87
2019-03-27T02:09:10.409Z,13.27
2019-03-27T02:10:15.960Z,12.17
2019-03-27T02:11:21.221Z,12.60
2019-03-27T02:12:26.538Z,13.43
2019-03-27T02:13:31.777Z,12.53
2019-03-27T02:14:37.047Z,14.10
2019-03-27T02:15:42.471Z,13.23
2019-03-27T02:16:48.028Z,12.67
2019-03-27T02:17:53.195Z,14.03
2019-03-27T02:18:59.077Z,13.13
2019-03-27T02:20:04.408Z,13.70
2019-03-27T02:21:09.791Z,12.60
2019-03-27T02:22:15.047Z,13.57
2019-03-27T02:23:20.388Z,13.73
2019-03-27T02:24:25.741Z,14.17
2019-03-27T02:25:31.044Z,12.83
2019-03-27T02:26:36.321Z,13.57
2019-03-27T02:27:41.558Z,13.60
2019-03-27T02:28:47.244Z,14.03
2019-03-27T02:29:52.426Z,13.50
2019-03-27T02:30:57.694Z,13.73
2019-03-27T02:32:03.063Z,13.80
2019-03-27T02:33:08.277Z,13.50
2019-03-27T02:34:13.732Z,14.33
2019-03-27T02:35:18.929Z,13.40
2019-03-27T02:36:24.258Z,15.10
2019-03-27T02:37:29.476Z,14.27
2019-03-27T02:38:34.999Z,14.63
2019-03-27T02:39:40.478Z,14.10
2019-03-27T02:40:45.726Z,14.77
2019-03-27T02:41:51.120Z,15.00
2019-03-27T02:42:56.348Z,15.57
2019-03-27T02:44:01.729Z,15.40
2019-03-27T02:45:07.103Z,16.33
2019-03-27T02:46:24.579Z,15.97
2019-03-27T02:47:19.374Z,16.73
2019-03-27T02:48:24.603Z,15.87
2019-03-27T02:49:29.947Z,16.10
2019-03-27T02:50:35.183Z,16.00
2019-03-27T02:51:40.424Z,15.53
2019-03-27T02:52:45.666Z,17.03
2019-03-27T02:53:50.909Z,16.43
2019-03-27T02:54:56.205Z,16.53
2019-03-27T02:56:01.908Z,16.57
2019-03-27T02:57:07.061Z,18.23
2019-03-27T02:58:12.660Z,16.73
2019-03-27T02:59:17.916Z,18.40
2019-03-27T03:00:23.197Z,18.07
2019-03-27T03:01:28.427Z,19.47
2019-03-27T03:02:33.673Z,17.90
2019-03-27T03:03:38.970Z,18.03
2019-03-27T03:04:44.250Z,17.63
2019-03-27T03:05:49.524Z,17.40
2019-03-27T03:06:54.857Z,18.47
2019-03-27T03:08:00.086Z,18.37
2019-03-27T03:09:07.334Z,18.17
2019-03-27T03:10:13.141Z,18.03
2019-03-27T03:11:18.368Z,16.93
2019-03-27T03:12:23.701Z,17.30
2019-03-27T03:13:28.911Z,16.60
2019-03-27T03:14:34.152Z,16.40
2019-03-27T03:15:39.403Z,17.07
2019-03-27T03:16:44.636Z,17.97
2019-03-27T03:17:50.041Z,16.47
2019-03-27T03:18:55.297Z,17.07
2019-03-27T03:20:00.621Z,17.57
2019-03-27T03:21:06.042Z,17.10
2019-03-27T03:22:11.485Z,16.93
2019-03-27T03:23:17.104Z,16.43
2019-03-27T03:24:22.293Z,15.13
2019-03-27T03:25:27.606Z,16.23
2019-03-27T03:26:32.854Z,16.20
2019-03-27T03:27:38.226Z,15.63
2019-03-27T03:28:43.610Z,16.97
2019-03-27T03:29:48.936Z,17.53
2019-03-27T03:30:54.176Z,16.77
2019-03-27T03:31:59.613Z,17.27
2019-03-27T03:33:05.055Z,17.47
2019-03-27T03:34:10.843Z,17.37
2019-03-27T03:35:16.558Z,17.87
2019-03-27T03:36:21.738Z,17.17
2019-03-27T03:37:27.005Z,17.90
2019-03-27T03:38:32.497Z,16.83
2019-03-27T03:39:37.776Z,18.07
2019-03-27T03:40:43.014Z,17.07
2019-03-27T03:41:48.256Z,15.73
2019-03-27T03:42:53.464Z,17.83
2019-03-27T03:43:58.594Z,16.40
2019-03-27T03:45:03.914Z,15.80
2019-03-27T03:46:09.128Z,16.70
2019-03-27T03:47:14.549Z,16.73
2019-03-27T03:48:19.727Z,16.27
2019-03-27T03:49:24.973Z,16.53
2019-03-27T03:50:42.308Z,17.07
2019-03-27T03:51:47.807Z,16.93
2019-03-27T03:52:53.008Z,16.47
2019-03-27T03:53:58.456Z,16.60
2019-03-27T03:55:03.732Z,16.10
2019-03-27T03:56:11.198Z,16.20
2019-03-27T03:57:18.281Z,16.73
2019-03-27T03:58:24.906Z,16.70
2019-03-27T03:59:31.116Z,16.27
2019-03-27T04:00:36.798Z,16.47
2019-03-27T04:01:44.203Z,15.00
2019-03-27T04:02:50.713Z,16.20
2019-03-27T04:03:57.493Z,15.83
2019-03-27T04:05:04.111Z,15.00
2019-03-27T04:06:09.358Z,13.93
2019-03-27T04:07:14.716Z,14.60
2019-03-27T04:08:19.805Z,15.23
2019-03-27T04:09:25.031Z,14.47
2019-03-27T04:10:30.352Z,15.27
2019-03-27T04:11:35.777Z,14.20
2019-03-27T04:12:41.209Z,15.10
2019-03-27T04:13:46.523Z,14.30
2019-03-27T04:14:51.894Z,14.27
2019-03-27T04:15:57.174Z,13.17
2019-03-27T04:17:16.298Z,13.30
2019-03-27T04:18:09.609Z,13.97
2019-03-27T04:19:14.961Z,12.57
2019-03-27T04:20:20.226Z,13.50
2019-03-27T04:21:27.051Z,12.40
2019-03-27T04:22:32.445Z,12.43
2019-03-27T04:23:37.805Z,12.40
2019-03-27T04:24:43.162Z,13.10
2019-03-27T04:26:08.389Z,12.97
2019-03-27T04:26:55.269Z,13.27
2019-03-27T04:28:00.526Z,12.57
2019-03-27T04:29:05.742Z,11.60
2019-03-27T04:30:11.287Z,12.23
2019-03-27T04:31:17.097Z,12.40
2019-03-27T04:32:22.424Z,11.10
2019-03-27T04:33:27.899Z,12.37
2019-03-27T04:34:33.115Z,12.27
2019-03-27T04:35:38.518Z,11.13
2019-03-27T04:36:43.794Z,11.23
2019-03-27T04:37:49.056Z,10.57
2019-03-27T04:38:54.307Z,10.37
2019-03-27T04:39:59.672Z,12.60
2019-03-27T04:41:04.927Z,10.60
2019-03-27T04:42:10.200Z,11.53
2019-03-27T04:43:15.702Z,11.30
2019-03-27T04:44:20.930Z,11.93
2019-03-27T04:45:26.180Z,13.00
2019-03-27T04:46:31.529Z,11.13
2019-03-27T04:47:36.768Z,11.87
2019-03-27T04:48:42.046Z,12.37
2019-03-27T04:49:47.291Z,12.07
2019-03-27T04:50:52.497Z,11.70
2019-03-27T04:51:57.880Z,11.17
2019-03-27T04:53:03.282Z,11.13
2019-03-27T04:54:08.533Z,10.77
2019-03-27T04:55:14.044Z,10.77
2019-03-27T04:56:19.394Z,10.00
2019-03-27T04:57:24.564Z,10.60
2019-03-27T04:58:29.909Z,10.30
2019-03-27T04:59:35.264Z,10.37
2019-03-27T05:00:40.505Z,10.87
2019-03-27T05:01:45.890Z,10.97
2019-03-27T05:02:51.221Z,10.47
2019-03-27T05:03:56.828Z,11.03
2019-03-27T05:05:02.758Z,10.27
2019-03-27T05:06:07.988Z,10.17
2019-03-27T05:07:13.847Z,10.67
2019-03-27T05:08:19.446Z,10.53
2019-03-27T05:09:24.718Z,10.50
2019-03-27T05:10:29.970Z,9.60
2019-03-27T05:11:35.284Z,11.13
2019-03-27T05:12:40.517Z,9.73
2019-03-27T05:13:45.757Z,10.30
2019-03-27T05:14:51.002Z,10.87
2019-03-27T05:15:56.339Z,9.70
2019-03-27T05:17:01.548Z,10.80
2019-03-27T05:18:06.851Z,10.23
2019-03-27T05:19:12.372Z,7.87
2019-03-27T05:20:17.771Z,8.60
2019-03-27T05:21:22.952Z,9.33
2019-03-27T05:22:28.430Z,7.47
2019-03-27T05:23:33.720Z,9.23
2019-03-27T05:24:39.256Z,8.03
2019-03-27T05:25:44.524Z,8.67
2019-03-27T05:26:49.890Z,8.00
2019-03-27T05:27:55.141Z,8.70
2019-03-27T05:29:00.451Z,8.40
2019-03-27T05:30:06.022Z,7.97
2019-03-27T05:31:11.525Z,8.53
2019-03-27T05:32:17.030Z,8.73
2019-03-27T05:33:22.164Z,8.53
2019-03-27T05:34:27.641Z,7.77
2019-03-27T05:35:32.984Z,8.03
2019-03-27T05:36:38.215Z,6.77
2019-03-27T05:37:43.433Z,8.00
2019-03-27T05:38:48.747Z,7.40
2019-03-27T05:39:54.135Z,6.10
2019-03-27T05:40:59.394Z,8.07
2019-03-27T05:42:04.576Z,7.53
2019-03-27T05:43:10.198Z,6.80
2019-03-27T05:44:16.142Z,6.80
2019-03-27T05:45:21.735Z,6.43
2019-03-27T05:46:27.104Z,7.90
2019-03-27T05:47:32.588Z,6.43
2019-03-27T05:48:38.123Z,8.05
2019-03-27T05:49:43.418Z,7.80
2019-03-27T05:50:48.667Z,8.40
2019-03-27T05:51:54.150Z,8.13
2019-03-27T05:52:59.628Z,7.20
2019-03-27T05:54:04.981Z,7.07
2019-03-27T05:55:10.654Z,7.53
2019-03-27T05:56:16.315Z,7.07
2019-03-27T05:57:21.979Z,6.77
2019-03-27T05:58:27.331Z,6.13
2019-03-27T05:59:33.207Z,7.10
2019-03-27T06:00:38.542Z,6.97
2019-03-27T06:01:43.795Z,7.27
2019-03-27T06:02:49.087Z,7.50
2019-03-27T06:03:54.427Z,6.90
2019-03-27T06:05:00.363Z,7.50
2019-03-27T06:06:10.748Z,7.93
2019-03-27T06:07:16.102Z,7.03
2019-03-27T06:08:21.333Z,7.17
2019-03-27T06:09:27.099Z,6.03
2019-03-27T06:10:32.518Z,7.07
2019-03-27T06:11:37.865Z,6.73
2019-03-27T06:12:43.070Z,6.70
2019-03-27T06:13:48.338Z,7.03
2019-03-27T06:14:53.505Z,7.13
2019-03-27T06:15:58.825Z,7.10
2019-03-27T06:17:04.234Z,7.10
2019-03-27T06:18:13.246Z,6.60
2019-03-27T06:19:16.463Z,6.70
2019-03-27T06:20:21.690Z,6.63
2019-03-27T06:21:27.080Z,6.00
2019-03-27T06:22:32.337Z,7.17
2019-03-27T06:23:37.718Z,6.47
2019-03-27T06:24:43.044Z,7.00
2019-03-27T06:25:48.468Z,6.57
2019-03-27T06:26:53.887Z,6.50
2019-03-27T06:27:59.262Z,6.47
2019-03-27T06:29:04.651Z,5.90
2019-03-27T06:30:10.095Z,6.93
2019-03-27T06:31:15.458Z,6.10
2019-03-27T06:32:21.252Z,5.83
2019-03-27T06:33:26.538Z,6.37
2019-03-27T06:34:31.765Z,7.50
2019-03-27T06:35:37.321Z,6.27
2019-03-27T06:36:42.698Z,6.17
2019-03-27T06:37:48.026Z,7.17
2019-03-27T06:38:53.469Z,6.73
2019-03-27T06:39:58.691Z,6.13
2019-03-27T06:41:04.010Z,6.30
2019-03-27T06:42:09.479Z,6.03
2019-03-27T06:43:14.806Z,5.90
2019-03-27T06:44:20.371Z,7.23
2019-03-27T06:45:25.806Z,6.43
2019-03-27T06:46:31.186Z,6.03
2019-03-27T06:47:36.581Z,5.70
2019-03-27T06:48:41.806Z,6.40
2019-03-27T06:49:47.036Z,7.10
2019-03-27T06:50:52.344Z,6.43
2019-03-27T06:51:57.706Z,6.43
2019-03-27T06:53:03.134Z,5.93
2019-03-27T06:54:08.408Z,6.60
2019-03-27T06:55:13.849Z,6.17
2019-03-27T06:56:19.322Z,5.87
2019-03-27T06:57:24.699Z,6.30
2019-03-27T06:58:29.957Z,5.83
2019-03-27T06:59:35.181Z,6.07
2019-03-27T07:00:40.663Z,5.40
2019-03-27T07:01:45.973Z,6.13
2019-03-27T07:02:51.362Z,6.87
2019-03-27T07:04:09.536Z,6.43
2019-03-27T07:05:03.663Z,6.00
2019-03-27T07:06:08.898Z,5.77
2019-03-27T07:07:14.156Z,6.27
2019-03-27T07:08:20.091Z,5.93
2019-03-27T07:09:25.405Z,6.60
2019-03-27T07:10:30.601Z,6.50
2019-03-27T07:11:35.851Z,6.40
2019-03-27T07:12:41.123Z,6.50
2019-03-27T07:13:46.298Z,5.87
2019-03-27T07:14:51.642Z,7.20
2019-03-27T07:15:56.891Z,5.60
2019-03-27T07:17:02.508Z,6.33
2019-03-27T07:18:07.817Z,6.17
2019-03-27T07:19:13.248Z,6.13
2019-03-27T07:20:19.223Z,6.53
2019-03-27T07:21:24.664Z,6.63
2019-03-27T07:22:29.923Z,5.43
2019-03-27T07:23:35.280Z,6.07
2019-03-27T07:24:40.726Z,5.73
2019-03-27T07:25:45.960Z,6.90
2019-03-27T07:26:51.231Z,6.77
2019-03-27T07:27:56.415Z,6.93
2019-03-27T07:29:01.639Z,6.90
2019-03-27T07:30:07.451Z,6.37
2019-03-27T07:31:12.709Z,6.27
2019-03-27T07:32:18.497Z,6.07
2019-03-27T07:33:24.305Z,7.33
2019-03-27T07:34:29.596Z,7.10
2019-03-27T07:35:35.075Z,7.07
2019-03-27T07:36:40.429Z,6.17
2019-03-27T07:37:45.794Z,5.60
2019-03-27T07:38:51.118Z,6.77
2019-03-27T07:39:56.339Z,6.43
2019-03-27T07:41:01.629Z,7.13
2019-03-27T07:42:06.905Z,6.40
2019-03-27T07:43:12.236Z,6.90
2019-03-27T07:44:18.056Z,6.85
2019-03-27T07:45:23.635Z,7.33
2019-03-27T07:46:28.964Z,7.23
2019-03-27T07:47:34.632Z,6.42
2019-03-27T07:48:52.976Z,6.70
2019-03-27T07:49:46.855Z,6.15
2019-03-27T07:50:52.253Z,6.12
2019-03-27T07:51:57.648Z,7.53
2019-03-27T07:53:02.945Z,7.95
2019-03-27T07:54:08.530Z,7.33
2019-03-27T07:55:19.523Z,6.90
2019-03-27T07:56:21.193Z,7.10
2019-03-27T07:57:26.383Z,7.80
2019-03-27T07:58:31.656Z,7.67
2019-03-27T07:59:37.487Z,6.35
2019-03-27T08:00:42.704Z,5.90
2019-03-27T08:01:48.013Z,6.05
2019-03-27T08:02:53.387Z,6.20
2019-03-27T08:03:58.884Z,5.75
2019-03-27T08:05:04.381Z,6.72
2019-03-27T08:06:09.723Z,6.08
2019-03-27T08:07:26.161Z,5.67
2019-03-27T08:08:22.106Z,7.60
2019-03-27T08:09:27.318Z,6.80
2019-03-27T08:10:32.551Z,6.05
2019-03-27T08:11:37.989Z,6.45
2019-03-27T08:12:43.392Z,5.87
2019-03-27T08:13:48.616Z,6.03
2019-03-27T08:14:53.969Z,5.30
2019-03-27T08:15:59.414Z,5.80
2019-03-27T08:17:04.732Z,4.53
2019-03-27T08:18:10.008Z,4.85
2019-03-27T08:19:15.432Z,5.03
2019-03-27T08:20:21.067Z,4.87
2019-03-27T08:21:26.378Z,5.75
2019-03-27T08:22:31.616Z,5.33
2019-03-27T08:23:36.998Z,4.65
2019-03-27T08:24:42.310Z,4.70
2019-03-27T08:25:47.651Z,5.10
2019-03-27T08:26:52.927Z,5.25
2019-03-27T08:27:58.139Z,5.30
2019-03-27T08:29:03.387Z,5.50
2019-03-27T08:30:11.514Z,6.08
2019-03-27T08:31:16.722Z,5.42
2019-03-27T08:32:22.532Z,5.05
2019-03-27T08:33:27.719Z,6.25
2019-03-27T08:34:32.892Z,5.60
2019-03-27T08:35:38.520Z,6.00
2019-03-27T08:36:43.945Z,6.25
2019-03-27T08:37:49.305Z,4.92
2019-03-27T08:38:54.562Z,5.80
2019-03-27T08:39:59.849Z,5.70
2019-03-27T08:41:05.101Z,5.78
2019-03-27T08:42:10.375Z,5.87
2019-03-27T08:43:21.545Z,6.17
2019-03-27T08:44:22.942Z,5.80
2019-03-27T08:45:28.653Z,6.08
2019-03-27T08:46:33.929Z,5.97
2019-03-27T08:47:39.564Z,6.08
2019-03-27T08:48:44.866Z,6.87
2019-03-27T08:49:50.159Z,7.15
2019-03-27T08:50:55.377Z,6.50
2019-03-27T08:52:00.615Z,5.97
2019-03-27T08:53:05.967Z,6.33
2019-03-27T08:54:11.299Z,5.78
2019-03-27T08:55:16.618Z,5.62
2019-03-27T08:56:22.148Z,5.83
2019-03-27T08:57:27.416Z,5.65
2019-03-27T08:58:32.661Z,5.15
2019-03-27T08:59:38.170Z,6.35
2019-03-27T09:00:53.964Z,6.03
2019-03-27T09:01:59.668Z,5.50
2019-03-27T09:03:43.244Z,6.15
2019-03-27T09:05:21.220Z,6.12
2019-03-27T09:06:56.519Z,5.92
2019-03-27T09:08:41.039Z,5.78
2019-03-27T09:09:46.836Z,6.45
2019-03-27T09:10:52.186Z,5.45
2019-03-27T09:11:57.699Z,6.37
2019-03-27T09:13:02.988Z,6.75
2019-03-27T09:14:08.627Z,6.08
2019-03-27T09:15:14.370Z,5.72
2019-03-27T09:16:19.735Z,5.72
2019-03-27T09:17:25.227Z,5.53
2019-03-27T09:18:30.570Z,5.28
2019-03-27T09:19:36.499Z,5.15
2019-03-27T09:20:41.788Z,5.33
2019-03-27T09:21:47.172Z,5.35
2019-03-27T09:22:52.504Z,5.87
2019-03-27T09:23:57.784Z,5.08
2019-03-27T09:25:03.311Z,5.37
2019-03-27T09:26:08.612Z,5.05
2019-03-27T09:27:14.073Z,5.50
2019-03-27T09:28:19.571Z,5.70
2019-03-27T09:29:25.362Z,5.58
2019-03-27T09:30:30.578Z,5.70
2019-03-27T09:31:44.643Z,4.97
2019-03-27T09:32:42.972Z,6.03
2019-03-27T09:33:48.401Z,4.92
2019-03-27T09:34:53.467Z,4.92
2019-03-27T09:35:58.751Z,5.17
2019-03-27T09:37:04.160Z,4.78
2019-03-27T09:38:09.456Z,5.47
2019-03-27T09:39:14.975Z,5.15
2019-03-27T09:40:20.523Z,5.53
2019-03-27T09:41:26.360Z,5.28
2019-03-27T09:42:31.746Z,5.72
2019-03-27T09:43:37.074Z,4.97
2019-03-27T09:44:42.412Z,4.47
2019-03-27T09:45:47.676Z,5.20
2019-03-27T09:46:52.965Z,5.12
2019-03-27T09:47:58.234Z,4.30
2019-03-27T09:49:06.191Z,4.40
2019-03-27T09:50:11.702Z,4.50
2019-03-27T09:51:17.294Z,5.10
2019-03-27T09:52:23.162Z,4.22
2019-03-27T09:53:28.489Z,4.72
2019-03-27T09:54:33.769Z,4.05
2019-03-27T09:55:39.306Z,4.62
2019-03-27T09:56:44.658Z,4.65
2019-03-27T09:57:49.984Z,4.15
2019-03-27T09:58:55.237Z,5.15
2019-03-27T10:00:00.532Z,4.87
2019-03-27T10:01:07.345Z,4.45
2019-03-27T10:02:12.799Z,4.70
2019-03-27T10:03:18.092Z,4.62
2019-03-27T10:04:23.830Z,4.30
2019-03-27T10:05:29.303Z,3.90
2019-03-27T10:06:34.494Z,4.80
2019-03-27T10:07:39.773Z,4.15
2019-03-27T10:08:44.986Z,4.25
2019-03-27T10:09:50.503Z,4.45
2019-03-27T10:10:55.826Z,4.08
2019-03-27T10:12:01.259Z,4.08
2019-03-27T10:13:06.587Z,4.50
2019-03-27T10:14:11.976Z,4.05
2019-03-27T10:15:17.488Z,4.37
2019-03-27T10:16:22.939Z,3.40
2019-03-27T10:17:28.441Z,3.83
2019-03-27T10:18:33.713Z,4.03
2019-03-27T10:19:39.081Z,4.12
2019-03-27T10:20:44.341Z,4.75
2019-03-27T10:21:49.565Z,3.67
2019-03-27T10:22:54.880Z,4.58
2019-03-27T10:24:00.192Z,3.42
2019-03-27T10:25:06.500Z,3.52
2019-03-27T10:26:11.879Z,3.65
2019-03-27T10:27:17.004Z,3.62
2019-03-27T10:28:22.387Z,4.00
2019-03-27T10:29:28.057Z,4.20
2019-03-27T10:30:33.498Z,4.30
2019-03-27T10:31:38.902Z,4.92
2019-03-27T10:32:44.203Z,3.95
2019-03-27T10:33:49.473Z,4.33
2019-03-27T10:34:54.757Z,4.08
2019-03-27T10:36:00.034Z,4.60
2019-03-27T10:37:05.517Z,4.62
2019-03-27T10:38:10.768Z,4.62
2019-03-27T10:39:16.367Z,4.70
2019-03-27T10:40:21.792Z,4.78
2019-03-27T10:41:27.269Z,4.37
2019-03-27T10:42:32.704Z,4.28
2019-03-27T10:43:38.115Z,4.25
2019-03-27T10:44:43.576Z,4.15
2019-03-27T10:45:48.739Z,4.40
2019-03-27T10:46:54.069Z,4.10
2019-03-27T10:47:59.480Z,3.70
2019-03-27T10:49:04.706Z,3.80
2019-03-27T10:50:17.399Z,4.20
2019-03-27T10:51:17.180Z,4.03
2019-03-27T10:52:22.611Z,3.77
2019-03-27T10:53:28.298Z,3.58
2019-03-27T10:54:33.637Z,3.77
2019-03-27T10:55:39.331Z,3.30
2019-03-27T10:56:44.542Z,2.90
2019-03-27T10:57:49.719Z,3.10
2019-03-27T10:58:54.970Z,2.50
2019-03-27T11:00:00.344Z,2.98
2019-03-27T11:01:07.278Z,2.20
2019-03-27T11:02:12.722Z,2.37
2019-03-27T11:03:20.759Z,2.30
2019-03-27T11:04:25.843Z,2.60
2019-03-27T11:05:31.157Z,2.65
2019-03-27T11:06:36.615Z,3.10
2019-03-27T11:07:41.888Z,2.25
2019-03-27T11:08:47.209Z,2.65
2019-03-27T11:09:52.518Z,2.52
2019-03-27T11:10:57.812Z,3.15
2019-03-27T11:12:03.122Z,3.80
2019-03-27T11:13:08.297Z,2.90
2019-03-27T11:14:13.755Z,2.80
2019-03-27T11:15:19.231Z,2.90
2019-03-27T11:16:25.101Z,2.60
2019-03-27T11:17:30.253Z,2.95
2019-03-27T11:18:35.649Z,3.02
2019-03-27T11:19:40.992Z,3.10
2019-03-27T11:20:46.374Z,3.45
2019-03-27T11:21:51.679Z,3.52
2019-03-27T11:22:56.972Z,3.27
2019-03-27T11:24:02.253Z,2.83
2019-03-27T11:25:07.777Z,3.58
2019-03-27T11:26:13.199Z,2.95
2019-03-27T11:27:18.418Z,3.80
2019-03-27T11:28:23.971Z,2.52
2019-03-27T11:29:29.399Z,2.47
2019-03-27T11:30:39.418Z,2.77
2019-03-27T11:31:44.821Z,2.40
2019-03-27T11:32:50.060Z,2.20
2019-03-27T11:33:55.320Z,2.20
2019-03-27T11:35:00.743Z,2.62
2019-03-27T11:36:06.473Z,2.80
2019-03-27T11:37:11.849Z,2.98
2019-03-27T11:38:17.487Z,4.05
2019-03-27T11:39:24.796Z,2.92
2019-03-27T11:40:30.245Z,3.20
2019-03-27T11:41:35.838Z,2.92
2019-03-27T11:42:41.125Z,3.10
2019-03-27T11:43:54.645Z,2.55
2019-03-27T11:44:53.217Z,3.42
2019-03-27T11:45:58.484Z,2.72
2019-03-27T11:47:03.669Z,3.42
2019-03-27T11:48:08.982Z,2.92
2019-03-27T11:49:15.617Z,3.55
2019-03-27T11:50:20.554Z,3.27
2019-03-27T11:51:25.644Z,2.80
2019-03-27T11:52:30.663Z,3.52
2019-03-27T11:53:35.628Z,3.20
2019-03-27T11:54:40.605Z,3.33
2019-03-27T11:55:45.668Z,2.87
2019-03-27T11:56:50.765Z,3.22
2019-03-27T11:57:55.891Z,3.30
2019-03-27T11:59:01.184Z,2.60
2019-03-27T12:00:07.951Z,2.60
2019-03-27T12:01:13.590Z,3.92
2019-03-27T12:02:19.114Z,3.50
2019-03-27T12:03:24.874Z,3.65
2019-03-27T12:04:30.465Z,3.02
2019-03-27T12:05:36.013Z,3.17
2019-03-27T12:06:41.411Z,3.25
2019-03-27T12:07:47.635Z,2.87
2019-03-27T12:08:53.169Z,3.35
2019-03-27T12:09:58.571Z,2.90
2019-03-27T12:11:04.045Z,3.65
2019-03-27T12:12:09.586Z,2.92
2019-03-27T12:13:15.056Z,3.40
2019-03-27T12:14:20.606Z,3.17
2019-03-27T12:15:41.028Z,3.47
2019-03-27T12:16:49.887Z,2.80
2019-03-27T12:17:54.321Z,3.05
2019-03-27T12:19:00.045Z,2.75
2019-03-27T12:20:06.377Z,2.98
2019-03-27T12:21:11.905Z,3.00
2019-03-27T12:22:19.089Z,3.10
2019-03-27T12:23:24.630Z,3.25
2019-03-27T12:24:30.671Z,4.22
2019-03-27T12:25:45.753Z,3.45
2019-03-27T12:26:51.353Z,3.45
2019-03-27T12:27:57.188Z,2.87
2019-03-27T12:29:02.738Z,2.70
2019-03-27T12:30:08.595Z,2.60
2019-03-27T12:31:14.493Z,3.05
2019-03-27T12:32:20.009Z,2.92
2019-03-27T12:33:25.611Z,2.90
2019-03-27T12:34:31.103Z,3.15
2019-03-27T12:35:36.771Z,3.08
2019-03-27T12:36:42.014Z,2.72
2019-03-27T12:37:47.256Z,2.70
2019-03-27T12:38:52.507Z,3.10
2019-03-27T12:39:57.902Z,3.22
2019-03-27T12:41:03.357Z,3.52
2019-03-27T12:42:08.802Z,3.50
2019-03-27T12:43:14.284Z,3.20
2019-03-27T12:44:19.785Z,3.52
2019-03-27T12:45:25.032Z,3.42
2019-03-27T12:46:30.538Z,2.87
2019-03-27T12:47:36.092Z,3.20
2019-03-27T12:48:41.585Z,3.17
2019-03-27T12:49:46.966Z,3.55
2019-03-27T12:50:52.283Z,3.08
2019-03-27T12:51:57.761Z,2.87
2019-03-27T12:53:03.479Z,3.37
2019-03-27T12:54:09.157Z,3.12
2019-03-27T12:55:14.859Z,3.08
2019-03-27T12:56:20.223Z,3.17
2019-03-27T12:57:25.551Z,2.70
2019-03-27T12:58:31.074Z,2.70
2019-03-27T12:59:37.918Z,2.55
2019-03-27T13:00:43.257Z,2.98
2019-03-27T13:01:48.805Z,2.67
2019-03-27T13:02:54.229Z,3.08
2019-03-27T13:03:59.457Z,2.37
2019-03-27T13:05:05.023Z,2.98
2019-03-27T13:06:10.639Z,3.30
2019-03-27T13:07:16.159Z,2.98
2019-03-27T13:08:21.808Z,3.77
2019-03-27T13:09:27.688Z,2.50
2019-03-27T13:10:33.049Z,2.27
2019-03-27T13:11:38.629Z,2.80
2019-03-27T13:12:44.046Z,2.58
2019-03-27T13:13:49.430Z,2.30
2019-03-27T13:14:55.103Z,2.72
2019-03-27T13:16:00.661Z,2.35
2019-03-27T13:17:06.239Z,2.55
2019-03-27T13:18:11.769Z,2.80
2019-03-27T13:19:17.209Z,1.90
2019-03-27T13:20:22.622Z,2.02
2019-03-27T13:21:28.153Z,1.90
2019-03-27T13:22:33.584Z,2.12
2019-03-27T13:23:39.143Z,1.92
2019-03-27T13:24:44.484Z,2.05
2019-03-27T13:25:50.017Z,1.82
2019-03-27T13:26:55.342Z,2.90
2019-03-27T13:28:00.756Z,2.00
2019-03-27T13:29:06.334Z,1.85
2019-03-27T13:30:31.849Z,1.77
2019-03-27T13:31:40.518Z,2.15
2019-03-27T13:32:46.097Z,1.85
2019-03-27T13:33:56.880Z,2.52
2019-03-27T13:35:02.481Z,2.42
2019-03-27T13:36:08.793Z,3.12
2019-03-27T13:37:14.226Z,4.90
2019-03-27T13:38:19.767Z,2.72
2019-03-27T13:39:25.293Z,2.67
2019-03-27T13:40:30.738Z,2.50
2019-03-27T13:41:36.329Z,2.40
2019-03-27T13:42:41.793Z,2.98
2019-03-27T13:43:47.213Z,2.80
2019-03-27T13:44:52.594Z,2.50
2019-03-27T13:45:57.862Z,2.80
2019-03-27T13:47:03.328Z,2.58
2019-03-27T13:48:09.057Z,2.60
2019-03-27T13:49:14.501Z,2.70
2019-03-27T13:50:20.360Z,2.65
2019-03-27T13:51:39.514Z,2.67
2019-03-27T13:52:33.035Z,2.45
2019-03-27T13:53:39.020Z,3.00
2019-03-27T13:54:44.595Z,2.47
2019-03-27T13:55:49.858Z,2.60
2019-03-27T13:56:55.362Z,2.60
2019-03-27T13:58:00.540Z,2.72
2019-03-27T13:59:05.904Z,2.70
2019-03-27T14:00:12.363Z,2.45
2019-03-27T14:01:17.680Z,2.22
2019-03-27T14:02:23.099Z,2.70
2019-03-27T14:03:28.448Z,2.55
2019-03-27T14:04:34.334Z,3.40
2019-03-27T14:05:40.020Z,2.77
2019-03-27T14:06:45.462Z,3.00
2019-03-27T14:07:51.031Z,2.87
2019-03-27T14:08:56.462Z,2.80
2019-03-27T14:10:01.836Z,2.80
2019-03-27T14:11:07.422Z,2.75
2019-03-27T14:12:13.105Z,2.58
2019-03-27T14:13:19.516Z,2.92
2019-03-27T14:14:24.935Z,2.60
2019-03-27T14:15:30.421Z,2.92
2019-03-27T14:16:35.853Z,3.25
2019-03-27T14:17:44.364Z,2.40
2019-03-27T14:18:49.648Z,2.33
2019-03-27T14:19:54.900Z,2.75
2019-03-27T14:21:00.262Z,2.55
2019-03-27T14:22:05.743Z,2.40
2019-03-27T14:23:11.029Z,2.42
2019-03-27T14:24:16.334Z,2.27
2019-03-27T14:25:22.355Z,2.37
2019-03-27T14:26:27.672Z,2.30
2019-03-27T14:27:33.042Z,2.65